Time;durP1;ratioP1;P1;durP2;ratioP2;P2;SDS_P1;SDS_P2;PMS_P1;PMS_P2;Temp;Humidity;BMP_temperature;BMP_pressure;BME280_temperature;BME280_humidity;BME280_pressure;Samples;Min_cycle;Max_cycle;Signal;HPM_P1;HPM_P2
2022/01/25 00:16:05;;;;;;;24.25;7.80;;;7.90;97.10;;;;;;5056918;28;20052;-49
2022/01/25 00:26:03;;;;;;;29.02;10.18;;;7.90;97.10;;;;;;5054790;28;20047;-48
2022/01/25 00:31:12;;;;;;;24.45;9.55;;;7.90;97.40;;;;;;5054528;28;20340;-48
2022/01/25 00:33:42;;;;;;;26.80;10.05;;;7.90;97.10;;;;;;5057260;28;20063;-48
2022/01/25 00:36:10;;;;;;;23.95;10.32;;;7.90;97.10;;;;;;5057823;28;20099;-48
2022/01/25 00:38:37;;;;;;;21.80;9.40;;;7.90;97.00;;;;;;5053787;28;20481;-48
2022/01/25 00:41:02;;;;;;;27.00;10.63;;;7.90;97.00;;;;;;5058022;28;20067;-49
2022/01/25 00:43:28;;;;;;;21.17;7.05;;;7.90;97.10;;;;;;5053883;28;20064;-49
2022/01/25 00:45:58;;;;;;;29.77;9.82;;;7.90;97.00;;;;;;5057463;28;20036;-48
2022/01/25 00:51:36;;;;;;;26.45;9.25;;;7.90;97.00;;;;;;5055477;28;20433;-48
2022/01/25 00:56:45;;;;;;;23.83;10.02;;;7.90;97.00;;;;;;5059331;28;20701;-49
2022/01/25 00:59:13;;;;;;;28.63;11.48;;;7.90;97.10;;;;;;5058777;28;20040;-48
2022/01/25 01:01:40;;;;;;;31.52;12.05;;;7.90;97.00;;;;;;5058407;28;20055;-48
2022/01/25 01:04:07;;;;;;;31.02;11.75;;;7.90;97.00;;;;;;5053725;28;20021;-48
2022/01/25 01:06:33;;;;;;;27.55;11.02;;;7.90;97.10;;;;;;5057508;28;20037;-48
2022/01/25 01:08:59;;;;;;;28.63;10.20;;;7.90;97.00;;;;;;5056603;28;20025;-49
2022/01/25 01:11:35;;;;;;;31.52;10.32;;;7.90;97.00;;;;;;5059190;28;20032;-49
2022/01/25 01:38:12;;;;;;;19.70;8.23;;;7.90;97.00;;;;;;5057515;28;20037;-49
2022/01/25 01:45:58;;;;;;;22.15;8.82;;;7.90;97.00;;;;;;5058261;28;20031;-48
2022/01/25 01:48:39;;;;;;;26.42;10.00;;;7.90;97.30;;;;;;5060780;28;20029;-48
2022/01/25 01:51:49;;;;;;;27.27;8.75;;;7.90;97.00;;;;;;5059265;28;20201;-48
2022/01/25 01:53:58;;;;;;;21.95;7.93;;;7.80;96.90;;;;;;5056618;28;20048;-48
2022/01/25 01:56:24;;;;;;;28.15;8.85;;;7.90;97.00;;;;;;5059040;28;20537;-49
2022/01/25 01:58:52;;;;;;;24.83;10.13;;;7.90;97.00;;;;;;5061701;28;20032;-49
2022/01/25 02:01:18;;;;;;;29.55;10.00;;;7.80;96.90;;;;;;5060645;28;20040;-49
2022/01/25 02:03:44;;;;;;;26.20;9.50;;;7.80;96.90;;;;;;5054804;28;20430;-49
2022/01/25 02:06:10;;;;;;;23.92;10.05;;;7.80;96.90;;;;;;5062360;28;20037;-48
2022/01/25 02:08:36;;;;;;;29.23;9.23;;;7.90;97.00;;;;;;5059810;28;20021;-48
2022/01/25 02:11:04;;;;;;;28.00;9.70;;;7.80;96.90;;;;;;5060296;28;20032;-49
2022/01/25 02:13:30;;;;;;;29.42;9.25;;;7.90;96.90;;;;;;5062104;28;20115;-48
2022/01/25 02:15:57;;;;;;;22.90;10.63;;;7.90;97.00;;;;;;5058336;28;20029;-48
2022/01/25 02:23:52;;;;;;;27.45;10.82;;;7.90;96.90;;;;;;5056014;28;20036;-49
2022/01/25 02:26:18;;;;;;;27.95;10.10;;;7.80;96.90;;;;;;5060390;28;20024;-48
2022/01/25 02:28:45;;;;;;;31.90;10.35;;;7.90;96.90;;;;;;5058382;28;20039;-49
2022/01/25 02:31:14;;;;;;;28.45;11.20;;;7.80;96.90;;;;;;5062903;28;20050;-48
2022/01/25 02:33:40;;;;;;;25.85;10.50;;;7.90;97.00;;;;;;5056700;28;20124;-48
2022/01/25 02:36:13;;;;;;;26.92;10.65;;;7.90;96.90;;;;;;5056598;28;20048;-48
2022/01/25 02:38:39;;;;;;;26.08;9.90;;;7.80;96.90;;;;;;5056264;28;20041;-48
2022/01/25 02:41:05;;;;;;;27.13;9.23;;;7.80;96.90;;;;;;5056217;28;20417;-48
2022/01/25 02:43:34;;;;;;;24.73;8.93;;;7.80;96.90;;;;;;5060153;28;20029;-49
2022/01/25 02:48:54;;;;;;;21.02;9.02;;;7.80;96.90;;;;;;5060157;28;20032;-48
2022/01/25 02:51:36;;;;;;;27.15;10.18;;;7.90;97.00;;;;;;5055582;28;20033;-48
2022/01/25 02:54:04;;;;;;;26.45;9.55;;;7.80;96.90;;;;;;5055895;28;20045;-49
2022/01/25 02:56:30;;;;;;;32.20;11.23;;;7.80;96.90;;;;;;5060261;28;20025;-49
2022/01/25 02:58:56;;;;;;;26.73;10.60;;;7.80;96.90;;;;;;5057506;28;20342;-48
2022/01/25 03:01:22;;;;;;;31.52;11.70;;;7.80;96.90;;;;;;5062181;28;20027;-48
2022/01/25 03:03:49;;;;;;;20.15;9.35;;;7.80;96.90;;;;;;5055519;28;20120;-48
2022/01/25 03:06:19;;;;;;;24.70;10.25;;;7.80;96.90;;;;;;5056999;28;20032;-48
2022/01/25 03:08:46;;;;;;;28.08;8.30;;;7.80;96.90;;;;;;5058831;28;20417;-48
2022/01/25 03:11:12;;;;;;;24.40;10.07;;;7.80;96.90;;;;;;5057198;28;20396;-48
2022/01/25 03:13:49;;;;;;;21.40;8.55;;;7.80;96.90;;;;;;5059716;28;20535;-48
2022/01/25 03:16:26;;;;;;;29.67;9.40;;;7.80;96.90;;;;;;5059036;28;20033;-48
2022/01/25 03:18:54;;;;;;;22.92;9.07;;;7.80;96.80;;;;;;5059846;28;20111;-49
2022/01/25 03:21:33;;;;;;;22.83;8.32;;;7.80;96.80;;;;;;5059910;28;20029;-49
2022/01/25 03:23:58;;;;;;;26.27;9.73;;;7.80;96.80;;;;;;5054338;28;20033;-48
2022/01/25 03:26:25;;;;;;;23.23;9.73;;;7.80;96.80;;;;;;5059329;28;20043;-49
2022/01/25 03:28:53;;;;;;;24.90;9.65;;;7.80;96.80;;;;;;5058981;28;20033;-49
2022/01/25 03:31:19;;;;;;;25.92;10.45;;;7.80;96.80;;;;;;5058391;28;20020;-48
2022/01/25 03:33:45;;;;;;;29.45;10.75;;;7.80;96.90;;;;;;5058173;28;20490;-49
2022/01/25 03:36:12;;;;;;;29.55;10.73;;;7.80;96.80;;;;;;5056487;28;20374;-49
2022/01/25 03:38:40;;;;;;;26.23;9.57;;;7.80;96.80;;;;;;5055836;28;20021;-48
2022/01/25 03:41:14;;;;;;;29.50;11.13;;;7.80;96.80;;;;;;5054797;28;20025;-48
2022/01/25 03:43:39;;;;;;;23.33;9.77;;;7.80;96.80;;;;;;5056927;28;20152;-49
2022/01/25 03:46:16;;;;;;;28.60;9.95;;;7.80;96.80;;;;;;5058060;28;20115;-48
2022/01/25 03:51:26;;;;;;;20.38;6.82;;;7.80;96.80;;;;;;5061354;28;20487;-48
2022/01/25 03:53:53;;;;;;;19.35;6.28;;;7.80;96.80;;;;;;5051497;28;20049;-49
2022/01/25 03:56:19;;;;;;;27.02;8.82;;;7.80;96.80;;;;;;5057339;28;20070;-48
2022/01/25 03:58:45;;;;;;;25.70;10.35;;;7.80;96.80;;;;;;5058059;28;20066;-48
2022/01/25 04:01:11;;;;;;;26.63;11.75;;;7.80;96.80;;;;;;5058596;28;20021;-48
2022/01/25 04:03:43;;;;;;;27.40;9.75;;;7.80;96.80;;;;;;5056157;28;20058;-49
2022/01/25 04:06:10;;;;;;;28.55;10.40;;;7.80;96.80;;;;;;5059105;28;20032;-48
2022/01/25 04:08:36;;;;;;;20.10;10.15;;;7.80;96.80;;;;;;5060351;28;20574;-49
2022/01/25 04:11:02;;;;;;;22.58;9.60;;;7.80;96.80;;;;;;5057659;28;20346;-49
2022/01/25 04:13:27;;;;;;;33.20;11.77;;;7.80;96.80;;;;;;5058809;28;20032;-48
2022/01/25 04:15:56;;;;;;;31.15;10.63;;;7.80;96.80;;;;;;5056443;28;20047;-48
2022/01/25 04:18:35;;;;;;;17.83;6.93;;;7.80;96.80;;;;;;5055527;28;20121;-48
2022/01/25 04:21:25;;;;;;;16.75;7.80;;;7.80;96.70;;;;;;5057789;28;20374;-48
2022/01/25 04:26:34;;;;;;;22.92;7.88;;;7.80;96.80;;;;;;5058130;28;20068;-48
2022/01/25 04:29:00;;;;;;;15.57;7.32;;;7.80;96.70;;;;;;5054680;28;20037;-49
2022/01/25 04:31:25;;;;;;;22.58;6.80;;;7.80;96.70;;;;;;5054984;28;20517;-48
2022/01/25 04:34:08;;;;;;;23.40;7.60;;;7.80;96.70;;;;;;5057835;28;20033;-48
2022/01/25 04:50:10;;;;;;;24.80;9.25;;;7.80;96.70;;;;;;5058629;28;20044;-49
2022/01/25 04:52:48;;;;;;;16.50;6.90;;;7.70;96.60;;;;;;5056038;28;20343;-48
2022/01/25 04:55:42;;;;;;;12.82;6.43;;;7.80;96.60;;;;;;5053557;28;20029;-48
2022/01/25 04:58:07;;;;;;;21.58;6.68;;;7.70;96.60;;;;;;5057377;28;20047;-49
2022/01/25 05:00:33;;;;;;;27.83;9.48;;;7.80;96.70;;;;;;5056944;28;20513;-49
2022/01/25 05:03:10;;;;;;;24.27;8.85;;;7.80;96.60;;;;;;5055337;28;20457;-49
2022/01/25 05:05:41;;;;;;;18.60;5.30;;;7.70;96.60;;;;;;5061570;28;20040;-49
2022/01/25 05:08:27;;;;;;;23.45;8.43;;;7.70;96.60;;;;;;5061214;28;20041;-48
2022/01/25 05:11:06;;;;;;;23.17;6.80;;;7.70;96.60;;;;;;5057142;28;20048;-48
2022/01/25 05:13:51;;;;;;;16.17;7.15;;;7.70;96.60;;;;;;5061912;28;20036;-48
2022/01/25 05:16:29;;;;;;;27.17;10.38;;;7.70;96.50;;;;;;5057215;28;20029;-48
2022/01/25 05:22:17;;;;;;;23.92;9.00;;;7.70;96.50;;;;;;5066868;28;20359;-50
2022/01/25 05:24:44;;;;;;;32.10;11.48;;;7.70;96.50;;;;;;5059926;28;20033;-49
2022/01/25 05:27:12;;;;;;;32.40;9.70;;;7.70;96.60;;;;;;5055688;28;20059;-49
2022/01/25 05:29:37;;;;;;;19.98;7.72;;;7.70;96.50;;;;;;5061121;28;20025;-49
2022/01/25 05:32:04;;;;;;;17.73;7.70;;;7.70;96.90;;;;;;5064187;28;20028;-48
2022/01/25 05:34:30;;;;;;;34.70;10.25;;;7.70;96.50;;;;;;5059339;28;20045;-48
2022/01/25 05:36:55;;;;;;;25.27;10.43;;;7.70;96.50;;;;;;5059608;28;20107;-48
2022/01/25 05:39:31;;;;;;;35.05;10.65;;;7.70;96.50;;;;;;5061259;28;20127;-48
2022/01/25 05:42:12;;;;;;;32.60;9.85;;;7.70;96.50;;;;;;5059847;28;20066;-49
2022/01/25 05:44:43;;;;;;;15.00;6.55;;;7.70;96.50;;;;;;5060358;28;20386;-49
2022/01/25 05:47:13;;;;;;;14.80;5.38;;;7.70;96.50;;;;;;5061048;28;20371;-49
2022/01/25 05:49:40;;;;;;;27.40;9.43;;;7.70;96.50;;;;;;5060991;28;20116;-49
2022/01/25 05:52:08;;;;;;;33.13;10.07;;;7.70;96.50;;;;;;5058332;28;20458;-48
2022/01/25 05:54:35;;;;;;;28.02;11.43;;;7.70;96.50;;;;;;5056422;28;20271;-49
2022/01/25 05:57:01;;;;;;;18.52;7.18;;;7.70;96.50;;;;;;5056518;28;20036;-48
2022/01/25 05:59:27;;;;;;;23.98;7.03;;;7.70;96.50;;;;;;5056865;28;20043;-48
2022/01/25 06:01:52;;;;;;;24.77;9.57;;;7.70;96.80;;;;;;5058793;28;20025;-48
2022/01/25 06:04:18;;;;;;;23.85;9.65;;;7.70;96.50;;;;;;5057405;28;20039;-48
2022/01/25 06:06:44;;;;;;;20.63;7.40;;;7.70;96.50;;;;;;5058513;28;20029;-48
2022/01/25 06:09:10;;;;;;;28.52;9.93;;;7.70;96.50;;;;;;5054996;28;20025;-48
2022/01/25 06:11:37;;;;;;;29.33;12.35;;;7.70;96.50;;;;;;5061947;28;20046;-48
2022/01/25 06:14:03;;;;;;;30.17;12.35;;;7.70;96.50;;;;;;5062056;28;20033;-48
2022/01/25 06:16:29;;;;;;;29.63;11.77;;;7.70;96.50;;;;;;5060778;28;20100;-48
2022/01/25 06:18:55;;;;;;;28.63;10.77;;;7.70;96.50;;;;;;5060198;28;20127;-48
2022/01/25 06:21:21;;;;;;;33.20;9.82;;;7.70;96.50;;;;;;5055979;28;20124;-48
2022/01/25 06:23:47;;;;;;;33.33;11.10;;;7.70;96.50;;;;;;5055983;28;20103;-48
2022/01/25 06:26:12;;;;;;;28.92;10.73;;;7.70;96.50;;;;;;5055772;28;20021;-48
2022/01/25 06:28:38;;;;;;;12.73;4.72;;;7.70;96.50;;;;;;5059662;28;20036;-48
2022/01/25 06:31:04;;;;;;;32.60;11.98;;;7.70;96.50;;;;;;5058109;28;20036;-48
2022/01/25 06:33:30;;;;;;;32.10;11.25;;;7.70;96.50;;;;;;5063200;28;20064;-48
2022/01/25 06:35:56;;;;;;;32.28;11.50;;;7.70;96.50;;;;;;5065968;28;20418;-49
2022/01/25 06:38:22;;;;;;;33.13;11.82;;;7.70;96.50;;;;;;5065247;28;20040;-48
2022/01/25 06:40:48;;;;;;;37.47;13.07;;;7.70;96.50;;;;;;5068853;28;20340;-48
2022/01/25 06:43:13;;;;;;;33.88;11.80;;;7.70;96.50;;;;;;5070599;28;20020;-49
2022/01/25 06:45:41;;;;;;;30.38;10.73;;;7.70;96.50;;;;;;5072195;28;20047;-48
2022/01/25 06:48:07;;;;;;;25.52;10.75;;;7.70;96.50;;;;;;5069934;28;20028;-48
2022/01/25 06:50:33;;;;;;;21.98;8.95;;;7.70;96.50;;;;;;5072434;28;20411;-48
2022/01/25 06:52:59;;;;;;;32.95;11.82;;;7.70;96.50;;;;;;5065278;28;20041;-48
2022/01/25 06:55:25;;;;;;;30.17;10.70;;;7.70;96.50;;;;;;5066866;28;20031;-48
2022/01/25 06:57:51;;;;;;;36.95;12.02;;;7.70;96.50;;;;;;5070344;28;20028;-48
2022/01/25 07:00:20;;;;;;;25.63;9.68;;;7.70;96.50;;;;;;5069985;28;20077;-48
2022/01/25 07:02:46;;;;;;;33.10;11.25;;;7.70;96.50;;;;;;5066479;28;20385;-48
2022/01/25 07:05:11;;;;;;;39.60;11.82;;;7.70;96.50;;;;;;5068976;28;20029;-48
2022/01/25 07:07:39;;;;;;;34.88;12.90;;;7.70;96.50;;;;;;5067899;28;20071;-48
2022/01/25 07:10:06;;;;;;;26.17;10.30;;;7.70;96.50;;;;;;5069589;28;20381;-48
2022/01/25 07:12:32;;;;;;;28.20;11.43;;;7.70;96.50;;;;;;5065936;28;20024;-48
2022/01/25 07:14:58;;;;;;;44.45;14.35;;;7.70;96.50;;;;;;5067043;28;20040;-48
2022/01/25 07:17:23;;;;;;;36.00;13.18;;;7.70;96.50;;;;;;5070642;28;20024;-48
2022/01/25 07:19:50;;;;;;;23.50;6.35;;;7.70;96.50;;;;;;5063145;28;20052;-49
2022/01/25 07:22:16;;;;;;;30.55;10.32;;;7.70;96.50;;;;;;5067447;28;20082;-48
2022/01/25 07:24:42;;;;;;;28.80;12.43;;;7.70;96.50;;;;;;5068466;28;20029;-49
2022/01/25 07:27:07;;;;;;;31.25;11.00;;;7.70;96.50;;;;;;5068142;28;20039;-48
2022/01/25 07:29:33;;;;;;;35.30;11.63;;;7.60;96.50;;;;;;5069606;28;20039;-48
2022/01/25 07:32:00;;;;;;;40.88;12.45;;;7.70;96.50;;;;;;5068322;28;20021;-48
2022/01/25 07:34:26;;;;;;;33.85;11.95;;;7.70;96.50;;;;;;5068933;28;20530;-48
2022/01/25 07:36:52;;;;;;;29.08;10.15;;;7.70;96.50;;;;;;5066635;28;20043;-48
2022/01/25 07:39:18;;;;;;;36.47;13.57;;;7.70;96.50;;;;;;5072227;28;20399;-48
2022/01/25 07:41:45;;;;;;;34.65;10.25;;;7.70;96.50;;;;;;5069240;28;20024;-48
2022/01/25 07:44:11;;;;;;;16.77;7.15;;;7.70;96.50;;;;;;5070489;28;20043;-48
2022/01/25 07:46:36;;;;;;;21.65;8.80;;;7.70;96.50;;;;;;5070531;28;20028;-48
2022/01/25 07:49:03;;;;;;;18.58;7.03;;;7.70;96.50;;;;;;5065780;28;20130;-48
2022/01/25 07:51:30;;;;;;;34.78;12.27;;;7.70;96.50;;;;;;5071658;28;20361;-48
2022/01/25 07:53:56;;;;;;;41.25;13.95;;;7.70;96.50;;;;;;5070347;28;20032;-48
2022/01/25 07:56:23;;;;;;;25.08;9.75;;;7.70;96.50;;;;;;5067629;28;20108;-48
2022/01/25 07:58:48;;;;;;;28.65;10.63;;;7.70;96.50;;;;;;5068229;28;20456;-48
2022/01/25 08:01:16;;;;;;;34.00;11.68;;;7.70;96.50;;;;;;5073605;28;20021;-48
2022/01/25 08:03:43;;;;;;;33.40;12.45;;;7.70;96.50;;;;;;5063115;28;20051;-48
2022/01/25 08:06:09;;;;;;;36.10;12.13;;;7.70;96.50;;;;;;5068965;28;20062;-48
2022/01/25 08:08:35;;;;;;;38.72;12.10;;;7.70;96.50;;;;;;5068018;28;20029;-48
2022/01/25 08:11:02;;;;;;;39.75;12.07;;;7.70;96.50;;;;;;5065774;28;20052;-48
2022/01/25 08:13:29;;;;;;;34.42;10.25;;;7.70;96.50;;;;;;5066725;28;20151;-48
2022/01/25 08:15:55;;;;;;;28.77;11.55;;;7.70;96.50;;;;;;5068924;28;20074;-49
2022/01/25 08:18:21;;;;;;;24.23;8.35;;;7.70;96.50;;;;;;5069646;28;20445;-49
2022/01/25 08:20:47;;;;;;;23.08;9.93;;;7.70;96.50;;;;;;5071597;28;20364;-48
2022/01/25 08:23:13;;;;;;;18.63;6.05;;;7.70;96.50;;;;;;5065706;28;20044;-48
2022/01/25 08:25:39;;;;;;;29.88;10.93;;;7.70;96.40;;;;;;5069888;28;20024;-48
2022/01/25 08:28:05;;;;;;;24.80;8.55;;;7.60;96.50;;;;;;5063668;28;20111;-48
2022/01/25 08:30:31;;;;;;;24.88;9.27;;;7.70;96.50;;;;;;5070167;28;20016;-48
2022/01/25 08:32:57;;;;;;;32.70;12.60;;;7.70;96.50;;;;;;5066957;28;20270;-48
2022/01/25 08:35:23;;;;;;;31.70;10.60;;;7.70;96.50;;;;;;5069803;28;20025;-48
2022/01/25 08:37:49;;;;;;;19.10;4.93;;;7.70;96.50;;;;;;5069302;28;20173;-48
2022/01/25 08:40:15;;;;;;;20.73;7.70;;;7.70;96.50;;;;;;5068529;28;20055;-48
2022/01/25 08:42:42;;;;;;;31.90;10.98;;;7.70;96.50;;;;;;5062925;28;20025;-48
2022/01/25 08:45:09;;;;;;;32.10;10.95;;;7.70;96.50;;;;;;5069923;28;20032;-49
2022/01/25 08:47:36;;;;;;;25.30;9.23;;;7.70;96.50;;;;;;5069672;28;20441;-48
2022/01/25 08:50:03;;;;;;;29.52;8.98;;;7.70;96.50;;;;;;5069773;28;20039;-49
2022/01/25 08:52:29;;;;;;;13.45;4.65;;;7.70;96.50;;;;;;5069144;28;20072;-48
2022/01/25 08:54:54;;;;;;;27.42;9.48;;;7.60;96.40;;;;;;5065137;28;20454;-48
2022/01/25 08:57:20;;;;;;;22.90;9.13;;;7.70;96.50;;;;;;5067995;28;20422;-49
2022/01/25 08:59:46;;;;;;;24.17;9.38;;;7.70;96.40;;;;;;5071573;28;20032;-48
2022/01/25 09:02:11;;;;;;;42.65;12.00;;;7.70;96.50;;;;;;5066669;28;20063;-48
2022/01/25 09:04:37;;;;;;;17.40;7.20;;;7.70;96.50;;;;;;5069525;28;20457;-48
2022/01/25 09:07:03;;;;;;;29.92;9.30;;;7.70;96.50;;;;;;5069675;28;20052;-48
2022/01/25 09:09:28;;;;;;;31.35;11.73;;;7.70;96.50;;;;;;5069183;28;20040;-48
2022/01/25 09:11:56;;;;;;;15.35;6.35;;;7.70;96.50;;;;;;5065382;28;20029;-48
2022/01/25 09:14:22;;;;;;;17.35;7.95;;;7.70;96.50;;;;;;5069384;28;20101;-48
2022/01/25 09:16:48;;;;;;;27.58;7.78;;;7.70;96.40;;;;;;5069270;28;20115;-48
2022/01/25 09:19:14;;;;;;;23.15;8.88;;;7.70;96.50;;;;;;5069632;28;20028;-48
2022/01/25 09:21:39;;;;;;;9.43;2.95;;;7.70;96.40;;;;;;5067112;28;20510;-48
2022/01/25 09:24:06;;;;;;;14.73;6.45;;;7.70;96.40;;;;;;5069574;28;20105;-48
2022/01/25 09:26:31;;;;;;;31.23;11.55;;;7.70;96.40;;;;;;5068988;28;20392;-49
2022/01/25 09:28:58;;;;;;;38.90;11.73;;;7.70;96.50;;;;;;5067591;28;20086;-48
2022/01/25 09:31:24;;;;;;;27.50;9.80;;;7.70;96.50;;;;;;5069682;28;20064;-48
2022/01/25 09:33:51;;;;;;;33.25;9.43;;;7.70;96.50;;;;;;5065087;28;20044;-49
2022/01/25 09:36:17;;;;;;;33.60;10.95;;;7.70;96.50;;;;;;5069333;28;20021;-48
2022/01/25 09:38:43;;;;;;;43.50;12.90;;;7.70;96.50;;;;;;5069290;28;20033;-49
2022/01/25 09:41:09;;;;;;;34.88;10.63;;;7.70;96.60;;;;;;5069832;28;20437;-48
2022/01/25 09:43:34;;;;;;;26.70;9.77;;;7.70;96.50;;;;;;5058282;28;20021;-48
2022/01/25 09:46:00;;;;;;;40.03;12.80;;;7.70;96.50;;;;;;5060231;28;20037;-50
2022/01/25 09:48:26;;;;;;;20.00;7.78;;;7.70;96.40;;;;;;5059622;28;20012;-48
2022/01/25 09:50:52;;;;;;;4.82;2.83;;;7.70;96.40;;;;;;5066652;28;20434;-48
2022/01/25 09:53:18;;;;;;;35.60;12.32;;;7.80;96.40;;;;;;5059963;28;20381;-48
2022/01/25 09:55:45;;;;;;;29.15;9.43;;;7.80;96.50;;;;;;5064486;28;20441;-48
2022/01/25 09:58:13;;;;;;;18.23;6.47;;;7.80;96.50;;;;;;5060553;28;20055;-48
2022/01/25 10:00:41;;;;;;;33.42;10.70;;;7.80;96.40;;;;;;5064725;28;20044;-48
2022/01/25 10:03:23;;;;;;;32.10;11.35;;;7.80;96.40;;;;;;5064634;28;20055;-48
2022/01/25 10:05:50;;;;;;;32.78;12.27;;;7.70;96.50;;;;;;5070154;28;20036;-48
2022/01/25 10:08:17;;;;;;;29.00;9.35;;;7.80;96.50;;;;;;5072305;28;20052;-48
2022/01/25 10:10:45;;;;;;;25.27;9.73;;;7.80;96.50;;;;;;5072320;28;20029;-48
2022/01/25 10:13:33;;;;;;;26.00;7.70;;;7.80;96.50;;;;;;5065223;28;20427;-48
2022/01/25 10:16:00;;;;;;;31.50;11.13;;;7.80;96.50;;;;;;5069609;28;20432;-49
2022/01/25 10:18:49;;;;;;;21.42;8.48;;;7.70;96.50;;;;;;5072158;28;20457;-49
2022/01/25 10:21:19;;;;;;;44.63;13.32;;;7.80;96.60;;;;;;5073789;28;20123;-48
2022/01/25 10:24:11;;;;;;;28.63;11.18;;;7.80;96.60;;;;;;5069295;28;20029;-49
2022/01/25 10:26:41;;;;;;;30.10;9.88;;;7.80;96.60;;;;;;5070141;28;20029;-49
2022/01/25 10:29:09;;;;;;;34.05;11.43;;;7.80;96.50;;;;;;5069609;28;20055;-48
2022/01/25 10:31:44;;;;;;;30.77;11.55;;;7.80;96.50;;;;;;5068447;28;20033;-48
2022/01/25 10:34:12;;;;;;;37.13;12.18;;;7.80;96.50;;;;;;5072107;28;20424;-49
2022/01/25 10:36:45;;;;;;;26.38;9.88;;;7.80;96.50;;;;;;5071675;28;20437;-48
2022/01/25 10:39:11;;;;;;;12.77;5.03;;;7.80;96.50;;;;;;5064703;28;20028;-48
2022/01/25 10:41:38;;;;;;;17.58;6.95;;;7.80;96.40;;;;;;5074367;28;20101;-49
2022/01/25 10:44:06;;;;;;;32.90;10.23;;;7.80;96.40;;;;;;5064846;28;20473;-48
2022/01/25 10:46:33;;;;;;;34.20;10.43;;;7.80;96.40;;;;;;5066192;28;20070;-48
2022/01/25 10:49:08;;;;;;;24.98;9.20;;;7.90;96.50;;;;;;5065871;28;20428;-48
2022/01/25 10:51:37;;;;;;;19.92;6.90;;;7.80;96.50;;;;;;5069808;28;20029;-49
2022/01/25 10:54:05;;;;;;;23.83;8.45;;;7.80;96.40;;;;;;5072580;28;20238;-48
2022/01/25 10:56:46;;;;;;;29.92;11.23;;;7.80;96.40;;;;;;5071001;28;20019;-48
2022/01/25 10:59:21;;;;;;;11.95;6.88;;;7.80;96.50;;;;;;5067327;28;20036;-48
2022/01/25 11:01:53;;;;;;;23.92;8.23;;;7.90;96.50;;;;;;5071563;28;20103;-49
2022/01/25 11:04:24;;;;;;;16.15;7.00;;;7.90;96.40;;;;;;5070038;28;20029;-48
2022/01/25 11:06:56;;;;;;;20.48;6.93;;;7.90;96.50;;;;;;5070483;28;20075;-48
2022/01/25 11:09:25;;;;;;;41.45;14.32;;;7.90;96.40;;;;;;5070986;28;20037;-48
2022/01/25 11:11:55;;;;;;;14.23;6.20;;;7.90;96.50;;;;;;5063983;28;20103;-48
2022/01/25 11:17:06;;;;;;;37.47;13.07;;;7.90;96.50;;;;;;5069851;28;20492;-48
2022/01/25 11:19:32;;;;;;;38.08;12.93;;;7.90;96.60;;;;;;5074091;28;20048;-48
2022/01/25 11:21:59;;;;;;;25.85;8.95;;;7.90;96.60;;;;;;5072257;28;20434;-48
2022/01/25 11:24:28;;;;;;;20.90;7.63;;;7.90;96.50;;;;;;5070766;28;20021;-48
2022/01/25 11:26:56;;;;;;;16.10;6.97;;;7.90;96.60;;;;;;5070995;28;20024;-48
2022/01/25 11:29:21;;;;;;;36.33;11.70;;;7.90;96.60;;;;;;5066228;28;20064;-48
2022/01/25 11:31:54;;;;;;;36.08;12.80;;;7.90;96.60;;;;;;5071275;28;20044;-48
2022/01/25 11:34:26;;;;;;;35.47;12.55;;;7.90;96.60;;;;;;5062947;28;20052;-49
2022/01/25 11:36:55;;;;;;;34.70;13.23;;;7.90;96.70;;;;;;5069816;28;20056;-48
2022/01/25 11:39:24;;;;;;;31.15;8.82;;;7.90;96.60;;;;;;5068194;28;20028;-48
2022/01/25 11:41:51;;;;;;;26.35;9.63;;;7.90;96.60;;;;;;5071122;28;20405;-49
2022/01/25 11:44:26;;;;;;;25.70;8.73;;;7.90;96.50;;;;;;5068272;28;20124;-48
2022/01/25 11:46:57;;;;;;;18.90;6.25;;;7.90;96.50;;;;;;5068274;28;20120;-48
2022/01/25 11:49:23;;;;;;;34.72;10.93;;;7.90;96.50;;;;;;5070635;28;20480;-48
2022/01/25 11:52:13;;;;;;;31.17;10.23;;;7.90;96.60;;;;;;5070744;28;20027;-48
2022/01/25 11:54:40;;;;;;;46.45;15.00;;;8.00;96.50;;;;;;5063583;28;20075;-48
2022/01/25 11:57:24;;;;;;;42.25;12.07;;;7.90;97.00;;;;;;5068035;28;20035;-48
2022/01/25 11:59:59;;;;;;;39.22;13.07;;;7.90;96.70;;;;;;5065521;28;20052;-49
2022/01/25 12:02:51;;;;;;;32.15;12.00;;;7.90;96.70;;;;;;5069473;28;20047;-49
2022/01/25 12:05:26;;;;;;;37.53;11.68;;;8.00;96.60;;;;;;5065499;28;20032;-48
2022/01/25 12:08:26;;;;;;;35.72;13.65;;;7.90;96.80;;;;;;5070601;28;20032;-48
2022/01/25 12:10:58;;;;;;;30.52;11.90;;;8.00;96.70;;;;;;5067990;28;20074;-49
2022/01/25 12:13:31;;;;;;;34.65;12.35;;;7.90;96.70;;;;;;5058776;28;20048;-48
2022/01/25 12:16:26;;;;;;;27.48;11.23;;;8.00;96.80;;;;;;5068259;28;20060;-49
2022/01/25 12:18:59;;;;;;;34.65;10.20;;;7.90;96.70;;;;;;5054085;28;20048;-48
2022/01/25 12:21:48;;;;;;;34.25;11.82;;;8.00;96.80;;;;;;5069542;28;20070;-49
2022/01/25 12:24:48;;;;;;;37.90;12.43;;;7.90;96.80;;;;;;5068671;28;20036;-48
2022/01/25 12:27:24;;;;;;;27.60;10.65;;;8.00;96.80;;;;;;5069855;28;20029;-48
2022/01/25 12:29:58;;;;;;;20.80;4.93;;;7.90;96.70;;;;;;5064658;28;20032;-48
2022/01/25 12:32:35;;;;;;;25.52;8.38;;;8.00;96.60;;;;;;5064332;28;20032;-48
2022/01/25 12:35:00;;;;;;;30.45;11.40;;;8.00;96.60;;;;;;5069923;28;20028;-48
2022/01/25 12:37:54;;;;;;;36.33;11.25;;;8.00;96.50;;;;;;5069145;28;20028;-48
2022/01/25 12:40:25;;;;;;;18.17;7.68;;;8.00;96.70;;;;;;5062721;28;20033;-49
2022/01/25 12:43:19;;;;;;;29.48;11.52;;;8.00;96.60;;;;;;5061718;28;20025;-48
2022/01/25 12:45:55;;;;;;;33.72;12.20;;;8.00;96.70;;;;;;5066888;28;20068;-48
2022/01/25 12:48:25;;;;;;;29.63;10.48;;;8.00;96.70;;;;;;5064815;28;20031;-48
2022/01/25 12:50:53;;;;;;;34.67;11.52;;;8.00;96.60;;;;;;5072254;28;20032;-49
2022/01/25 12:53:22;;;;;;;44.05;13.05;;;8.00;96.70;;;;;;5068091;28;20093;-49
2022/01/25 12:55:51;;;;;;;31.00;11.35;;;8.00;96.80;;;;;;5069927;28;20025;-48
2022/01/25 12:58:20;;;;;;;32.20;12.30;;;8.00;96.70;;;;;;5072190;28;20065;-49
2022/01/25 13:00:52;;;;;;;36.20;13.90;;;8.00;96.80;;;;;;5066694;28;20141;-48
2022/01/25 13:03:27;;;;;;;35.03;13.05;;;8.00;96.90;;;;;;5075756;28;20074;-48
2022/01/25 13:06:00;;;;;;;22.58;7.70;;;8.00;97.00;;;;;;5068724;28;20032;-49
2022/01/25 13:08:27;;;;;;;27.63;10.10;;;8.00;96.80;;;;;;5066585;28;20450;-48
2022/01/25 13:11:13;;;;;;;22.95;8.63;;;8.00;96.60;;;;;;5072538;28;20404;-48
2022/01/25 13:13:57;;;;;;;17.33;5.38;;;8.00;96.60;;;;;;5066255;28;20481;-48
2022/01/25 13:16:49;;;;;;;15.75;4.63;;;8.10;96.60;;;;;;5068817;28;20055;-49
2022/01/25 13:19:20;;;;;;;36.97;11.98;;;8.00;96.60;;;;;;5068621;28;20088;-48
2022/01/25 13:21:53;;;;;;;32.58;10.23;;;8.00;96.70;;;;;;5069893;28;20029;-49
2022/01/25 13:24:22;;;;;;;23.30;10.43;;;8.00;96.60;;;;;;5071061;28;20039;-48
2022/01/25 13:27:05;;;;;;;41.53;12.68;;;8.00;96.60;;;;;;5072948;28;20089;-48
2022/01/25 13:32:31;;;;;;;29.02;10.05;;;8.10;96.70;;;;;;5072609;28;20090;-48
2022/01/25 13:35:06;;;;;;;33.47;10.85;;;8.10;96.80;;;;;;5071789;28;20116;-48
2022/01/25 13:37:32;;;;;;;16.88;7.38;;;8.00;96.70;;;;;;5072332;28;20054;-49
2022/01/25 13:40:01;;;;;;;26.48;10.57;;;8.10;96.70;;;;;;5075935;28;20016;-48
2022/01/25 13:42:38;;;;;;;36.13;11.07;;;8.10;96.70;;;;;;5072495;28;20048;-48
2022/01/25 13:48:11;;;;;;;27.75;8.55;;;8.10;96.70;;;;;;5072303;28;20121;-48
2022/01/25 13:50:39;;;;;;;32.30;10.63;;;8.00;96.60;;;;;;5070192;28;20021;-48
2022/01/25 13:53:07;;;;;;;23.42;9.40;;;8.10;96.70;;;;;;5071829;28;20040;-48
2022/01/25 13:55:34;;;;;;;32.45;11.73;;;8.10;96.80;;;;;;5073454;28;20113;-48
2022/01/25 13:58:00;;;;;;;32.42;9.30;;;8.00;96.80;;;;;;5072199;28;20322;-49
2022/01/25 14:00:26;;;;;;;24.58;8.57;;;8.00;96.80;;;;;;5071747;28;20993;-49
2022/01/25 14:02:55;;;;;;;31.10;8.52;;;8.10;96.80;;;;;;5073955;28;20031;-48
2022/01/25 14:05:22;;;;;;;23.35;9.88;;;8.10;96.60;;;;;;5074008;28;20036;-48
2022/01/25 14:07:53;;;;;;;19.80;6.63;;;8.10;96.70;;;;;;5072261;28;20432;-48
2022/01/25 14:10:24;;;;;;;34.33;12.05;;;8.10;96.60;;;;;;5074257;28;20338;-49
2022/01/25 14:23:55;;;;;;;20.30;8.05;;;8.10;96.60;;;;;;5068262;28;20038;-48
2022/01/25 14:26:28;;;;;;;22.48;8.25;;;8.10;96.60;;;;;;5072315;28;20020;-48
2022/01/25 14:29:01;;;;;;;28.05;9.55;;;8.10;96.60;;;;;;5071974;28;20086;-49
2022/01/25 14:31:28;;;;;;;28.10;10.55;;;8.10;96.60;;;;;;5066377;28;20032;-48
2022/01/25 14:33:56;;;;;;;23.83;9.50;;;8.10;96.70;;;;;;5064941;28;20053;-49
2022/01/25 14:36:24;;;;;;;22.13;6.55;;;8.10;96.70;;;;;;5071134;28;20025;-49
2022/01/25 14:38:54;;;;;;;30.83;10.57;;;8.10;96.60;;;;;;5071605;28;20032;-48
2022/01/25 14:41:29;;;;;;;16.83;6.95;;;8.10;96.70;;;;;;5072211;28;20027;-49
2022/01/25 14:43:58;;;;;;;14.18;6.35;;;8.10;96.60;;;;;;5070163;28;20098;-48